sensor_id;sensor_type;location;lat;lon;timestamp;pressure;altitude;pressure_sealevel;temperature;humidity
74431;BME280;62863;52.062;23.764;2023-08-20T00:01:04;1027.7;;;22.9;76.7
74431;BME280;62863;52.062;23.764;2023-08-20T00:05:45;1027.8;;;22.9;77.1
74431;BME280;62863;52.062;23.764;2023-08-20T00:10:45;1027.7;;;22.9;76.6
74431;BME280;62863;52.062;23.764;2023-08-20T00:16:05;1027.7;;;22.9;75.9
74431;BME280;62863;52.062;23.764;2023-08-20T00:21:05;1027.6;;;23;76.1
74431;BME280;62863;52.062;23.764;2023-08-20T00:25:57;1027.6;;;23;75.8
74431;BME280;62863;52.062;23.764;2023-08-20T00:30:51;1027.7;;;23;75.5
74431;BME280;62863;52.062;23.764;2023-08-20T00:35:39;1027.7;;;23;76.2
74431;BME280;62863;52.062;23.764;2023-08-20T00:40:43;1027.6;;;23;76.5
74431;BME280;62863;52.062;23.764;2023-08-20T00:46:05;1027.5;;;22.9;74.7
74431;BME280;62863;52.062;23.764;2023-08-20T00:50:33;1027.5;;;22.9;74.6
74431;BME280;62863;52.062;23.764;2023-08-20T00:55:29;1027.5;;;22.9;74.9
74431;BME280;62863;52.062;23.764;2023-08-20T01:00:31;1027.4;;;22.8;73.6
74431;BME280;62863;52.062;23.764;2023-08-20T01:06:06;1027.4;;;22.7;74.7
74431;BME280;62863;52.062;23.764;2023-08-20T01:10:47;1027.5;;;22.6;75.1
74431;BME280;62863;52.062;23.764;2023-08-20T01:15:33;1027.7;;;22.6;75.2
74431;BME280;62863;52.062;23.764;2023-08-20T01:20:58;1027.8;;;22.5;74.7
74431;BME280;62863;52.062;23.764;2023-08-20T01:25:58;1027.9;;;22.5;74.1
74431;BME280;62863;52.062;23.764;2023-08-20T01:30:31;1028;;;22.5;73.6
74431;BME280;62863;52.062;23.764;2023-08-20T01:35:49;1028.2;;;22.4;74.7
74431;BME280;62863;52.062;23.764;2023-08-20T01:40:51;1027.9;;;22.2;75.2
74431;BME280;62863;52.062;23.764;2023-08-20T01:45:33;1027.5;;;21.9;76
74431;BME280;62863;52.062;23.764;2023-08-20T01:50:45;1027.4;;;21.8;76.3
74431;BME280;62863;52.062;23.764;2023-08-20T01:56:10;1027.5;;;21.8;75.8
74431;BME280;62863;52.062;23.764;2023-08-20T02:00:51;1027.5;;;21.8;75.6
74431;BME280;62863;52.062;23.764;2023-08-20T02:05:33;1027.6;;;21.7;75.3
74431;BME280;62863;52.062;23.764;2023-08-20T02:11:07;1027.7;;;21.7;75.2
74431;BME280;62863;52.062;23.764;2023-08-20T02:15:29;1027.6;;;21.7;75.8
74431;BME280;62863;52.062;23.764;2023-08-20T02:20:29;1027.5;;;21.7;76.2
74431;BME280;62863;52.062;23.764;2023-08-20T02:25:45;1027.5;;;21.8;76.5
74431;BME280;62863;52.062;23.764;2023-08-20T02:31:05;1027.5;;;21.8;76.5
74431;BME280;62863;52.062;23.764;2023-08-20T02:36:07;1027.5;;;21.8;76.6
74431;BME280;62863;52.062;23.764;2023-08-20T02:40:51;1027.4;;;21.8;77
74431;BME280;62863;52.062;23.764;2023-08-20T02:45:29;1027.2;;;21.8;76.8
74431;BME280;62863;52.062;23.764;2023-08-20T02:50:29;1027.2;;;21.7;76.3
74431;BME280;62863;52.062;23.764;2023-08-20T02:55:43;1027.2;;;21.7;75.6
74431;BME280;62863;52.062;23.764;2023-08-20T03:01:05;1027.4;;;21.8;76
74431;BME280;62863;52.062;23.764;2023-08-20T03:05:29;1027.3;;;21.8;76.1
74431;BME280;62863;52.062;23.764;2023-08-20T03:10:31;1027.2;;;21.8;75.7
74431;BME280;62863;52.062;23.764;2023-08-20T03:16:05;1027.2;;;21.7;75.2
74431;BME280;62863;52.062;23.764;2023-08-20T03:20:47;1027.2;;;21.7;75.1
74431;BME280;62863;52.062;23.764;2023-08-20T03:25:41;1027.2;;;21.6;75.1
74431;BME280;62863;52.062;23.764;2023-08-20T03:30:51;1027.2;;;21.6;75.1
74431;BME280;62863;52.062;23.764;2023-08-20T03:35:31;1027.1;;;21.6;75.4
74431;BME280;62863;52.062;23.764;2023-08-20T03:41:03;1027.1;;;21.6;75.9
74431;BME280;62863;52.062;23.764;2023-08-20T03:46:03;1027.1;;;21.6;75.6
74431;BME280;62863;52.062;23.764;2023-08-20T03:51:03;1027.1;;;21.6;74.9
74431;BME280;62863;52.062;23.764;2023-08-20T03:55:29;1027;;;21.7;74.8
74431;BME280;62863;52.062;23.764;2023-08-20T04:00:39;1027;;;21.9;74.4
74431;BME280;62863;52.062;23.764;2023-08-20T04:06:03;1027.1;;;22;74.2
74431;BME280;62863;52.062;23.764;2023-08-20T04:11:03;1027.1;;;22.2;73.5
74431;BME280;62863;52.062;23.764;2023-08-20T04:15:55;1027.1;;;22.4;73.4
74431;BME280;62863;52.062;23.764;2023-08-20T04:20:35;1027.2;;;22.6;72.8
74431;BME280;62863;52.062;23.764;2023-08-20T04:25:49;1027.3;;;22.8;71.6
74431;BME280;62863;52.062;23.764;2023-08-20T04:30:29;1027.3;;;23;71.5
74431;BME280;62863;52.062;23.764;2023-08-20T04:35:29;1027.4;;;23.2;72
74431;BME280;62863;52.062;23.764;2023-08-20T04:40:33;1027.3;;;23.4;71.9
74431;BME280;62863;52.062;23.764;2023-08-20T04:46:03;1027.4;;;23.7;69.8
74431;BME280;62863;52.062;23.764;2023-08-20T04:50:57;1027.4;;;24.1;68.6
74431;BME280;62863;52.062;23.764;2023-08-20T04:55:53;1027.5;;;24.4;68.6
74431;BME280;62863;52.062;23.764;2023-08-20T05:00:29;1027.4;;;24.6;69
74431;BME280;62863;52.062;23.764;2023-08-20T05:05:39;1027.4;;;24.7;68.3
74431;BME280;62863;52.062;23.764;2023-08-20T05:11:05;1027.4;;;24.8;67.4
74431;BME280;62863;52.062;23.764;2023-08-20T05:15:29;1027.4;;;24.9;67.2
74431;BME280;62863;52.062;23.764;2023-08-20T05:20:43;1027.4;;;25.1;66.3
74431;BME280;62863;52.062;23.764;2023-08-20T05:25:57;1027.3;;;25.4;65.7
74431;BME280;62863;52.062;23.764;2023-08-20T05:31:05;1027.3;;;26.5;62.1
74431;BME280;62863;52.062;23.764;2023-08-20T05:35:44;1027.2;;;30.4;52.8
74431;BME280;62863;52.062;23.764;2023-08-20T05:40:33;1027.1;;;33;47.2
74431;BME280;62863;52.062;23.764;2023-08-20T05:46:05;1027.1;;;34.6;45.1
74431;BME280;62863;52.062;23.764;2023-08-20T05:50:57;1027;;;37.9;40
74431;BME280;62863;52.062;23.764;2023-08-20T05:55:57;1026.9;;;40.3;36
74431;BME280;62863;52.062;23.764;2023-08-20T06:00:29;1026.9;;;42;33.5
74431;BME280;62863;52.062;23.764;2023-08-20T06:05:31;1026.8;;;43.7;28.3
74431;BME280;62863;52.062;23.764;2023-08-20T06:10:41;1026.8;;;44.5;25.7
74431;BME280;62863;52.062;23.764;2023-08-20T06:15:45;1026.8;;;44.8;24.6
74431;BME280;62863;52.062;23.764;2023-08-20T06:21:07;1026.8;;;45.6;23.5
74431;BME280;62863;52.062;23.764;2023-08-20T06:25:41;1026.8;;;45.4;23.7
74431;BME280;62863;52.062;23.764;2023-08-20T06:30:43;1026.8;;;45.2;24
74431;BME280;62863;52.062;23.764;2023-08-20T06:36:01;1026.8;;;45.4;24.1
74431;BME280;62863;52.062;23.764;2023-08-20T06:40:33;1026.9;;;46.1;23.7
74431;BME280;62863;52.062;23.764;2023-08-20T06:45:43;1026.8;;;46.2;23.5
74431;BME280;62863;52.062;23.764;2023-08-20T06:50:45;1026.7;;;46.3;23.9
74431;BME280;62863;52.062;23.764;2023-08-20T06:55:51;1026.8;;;46.5;23.4
74431;BME280;62863;52.062;23.764;2023-08-20T07:00:35;1026.8;;;46.2;22.5
74431;BME280;62863;52.062;23.764;2023-08-20T07:05:31;1026.8;;;45.8;22.7
74431;BME280;62863;52.062;23.764;2023-08-20T07:10:29;1026.8;;;46.1;22.5
74431;BME280;62863;52.062;23.764;2023-08-20T07:15:29;1026.8;;;46.3;21.8
74431;BME280;62863;52.062;23.764;2023-08-20T07:20:29;1026.9;;;46.4;21.6
74431;BME280;62863;52.062;23.764;2023-08-20T07:26:05;1026.9;;;46.8;21.4
74431;BME280;62863;52.062;23.764;2023-08-20T07:30:29;1026.9;;;46.7;21.8
74431;BME280;62863;52.062;23.764;2023-08-20T07:35:51;1027;;;46.6;22.5
74431;BME280;62863;52.062;23.764;2023-08-20T07:41:07;1027;;;46.4;22.6
74431;BME280;62863;52.062;23.764;2023-08-20T07:45:53;1026.9;;;46.3;22.8
74431;BME280;62863;52.062;23.764;2023-08-20T07:50:29;1027;;;46.3;22.7
74431;BME280;62863;52.062;23.764;2023-08-20T07:55:35;1027;;;45.9;22.7
74431;BME280;62863;52.062;23.764;2023-08-20T08:01:05;1027;;;45.6;22.8
74431;BME280;62863;52.062;23.764;2023-08-20T08:06:05;1027;;;45.3;23.2
74431;BME280;62863;52.062;23.764;2023-08-20T08:11:05;1027;;;44.7;23.7
74431;BME280;62863;52.062;23.764;2023-08-20T08:16:01;1027;;;44.3;24.7
74431;BME280;62863;52.062;23.764;2023-08-20T08:20:33;1026.9;;;43.9;24.8
74431;BME280;62863;52.062;23.764;2023-08-20T08:25:57;1026.9;;;43.6;25.1
74431;BME280;62863;52.062;23.764;2023-08-20T08:30:51;1026.9;;;43.2;25.9
74431;BME280;62863;52.062;23.764;2023-08-20T08:36:07;1026.9;;;42.2;26.6
74431;BME280;62863;52.062;23.764;2023-08-20T08:40:57;1026.9;;;41.2;28
74431;BME280;62863;52.062;23.764;2023-08-20T08:45:51;1026.9;;;40;29.9
74431;BME280;62863;52.062;23.764;2023-08-20T08:51:05;1027;;;38.6;32.2
74431;BME280;62863;52.062;23.764;2023-08-20T08:55:33;1027;;;37.8;33.1
74431;BME280;62863;52.062;23.764;2023-08-20T09:00:57;1027;;;37.2;34.2
74431;BME280;62863;52.062;23.764;2023-08-20T09:05:46;1027;;;36.8;34.2
74431;BME280;62863;52.062;23.764;2023-08-20T09:11:02;1027;;;36.5;35.4
74431;BME280;62863;52.062;23.764;2023-08-20T09:15:57;1027;;;36.1;35.8
74431;BME280;62863;52.062;23.764;2023-08-20T09:20:35;1026.9;;;35.6;37.9
74431;BME280;62863;52.062;23.764;2023-08-20T09:25:37;1026.9;;;35.5;38
74431;BME280;62863;52.062;23.764;2023-08-20T09:30:33;1026.9;;;35.5;38.1
74431;BME280;62863;52.062;23.764;2023-08-20T09:36:07;1026.9;;;35.2;38
74431;BME280;62863;52.062;23.764;2023-08-20T09:40:45;1026.9;;;35.3;38.8
74431;BME280;62863;52.062;23.764;2023-08-20T09:45:29;1026.9;;;35.4;39
74431;BME280;62863;52.062;23.764;2023-08-20T09:50:58;1026.9;;;35.5;39.1
74431;BME280;62863;52.062;23.764;2023-08-20T09:56:08;1026.9;;;35.7;38.5
74431;BME280;62863;52.062;23.764;2023-08-20T10:00:57;1026.9;;;35.4;37.7
74431;BME280;62863;52.062;23.764;2023-08-20T10:05:29;1026.8;;;35.3;38.2
74431;BME280;62863;52.062;23.764;2023-08-20T10:10:53;1026.8;;;35.4;38.7
74431;BME280;62863;52.062;23.764;2023-08-20T10:15:57;1026.8;;;35.2;37.9
74431;BME280;62863;52.062;23.764;2023-08-20T10:20:39;1026.8;;;34.8;38.8
74431;BME280;62863;52.062;23.764;2023-08-20T10:25:43;1026.7;;;34.8;39.3
74431;BME280;62863;52.062;23.764;2023-08-20T10:31:09;1026.7;;;34.9;39.7
74431;BME280;62863;52.062;23.764;2023-08-20T10:35:47;1026.7;;;35.2;41
74431;BME280;62863;52.062;23.764;2023-08-20T10:40:47;1026.6;;;35.4;39.8
74431;BME280;62863;52.062;23.764;2023-08-20T10:46:08;1026.6;;;35.4;39
74431;BME280;62863;52.062;23.764;2023-08-20T10:50:53;1026.6;;;35.4;38.8
74431;BME280;62863;52.062;23.764;2023-08-20T10:55:29;1026.5;;;35.5;39.1
74431;BME280;62863;52.062;23.764;2023-08-20T11:00:41;1026.5;;;35.5;39
74431;BME280;62863;52.062;23.764;2023-08-20T11:05:29;1026.5;;;35.5;38.5
74431;BME280;62863;52.062;23.764;2023-08-20T11:10:39;1026.4;;;35.6;38.5
74431;BME280;62863;52.062;23.764;2023-08-20T11:15:45;1026.4;;;35.7;38.1
74431;BME280;62863;52.062;23.764;2023-08-20T11:20:43;1026.4;;;35.9;37.5
74431;BME280;62863;52.062;23.764;2023-08-20T11:25:51;1026.3;;;36;37.7
74431;BME280;62863;52.062;23.764;2023-08-20T11:30:51;1026.3;;;36.2;37.6
74431;BME280;62863;52.062;23.764;2023-08-20T11:35:40;1026.3;;;36.3;37.5
74431;BME280;62863;52.062;23.764;2023-08-20T11:40:37;1026.2;;;36.2;36.5
74431;BME280;62863;52.062;23.764;2023-08-20T11:45:44;1026.2;;;36.2;35.9
74431;BME280;62863;52.062;23.764;2023-08-20T11:51:07;1026.2;;;36.1;35.9
74431;BME280;62863;52.062;23.764;2023-08-20T11:55:43;1026.1;;;35.8;36.4
74431;BME280;62863;52.062;23.764;2023-08-20T12:00:51;1026.1;;;35.9;36.6
74431;BME280;62863;52.062;23.764;2023-08-20T12:06:16;1026.1;;;35.8;36.2
74431;BME280;62863;52.062;23.764;2023-08-20T12:10:57;1026;;;35.8;35.9
74431;BME280;62863;52.062;23.764;2023-08-20T12:15:33;1026;;;35.9;36.5
74431;BME280;62863;52.062;23.764;2023-08-20T12:20:49;1026;;;35.8;35.5
74431;BME280;62863;52.062;23.764;2023-08-20T12:26:05;1026;;;35.9;36.9
74431;BME280;62863;52.062;23.764;2023-08-20T12:31:05;1026;;;35.9;36
74431;BME280;62863;52.062;23.764;2023-08-20T12:36:03;1025.9;;;36;36.2
74431;BME280;62863;52.062;23.764;2023-08-20T12:40:51;1025.9;;;36.1;35.6
74431;BME280;62863;52.062;23.764;2023-08-20T12:45:39;1026;;;36.2;35.2
74431;BME280;62863;52.062;23.764;2023-08-20T12:50:45;1025.9;;;36.3;35.4
74431;BME280;62863;52.062;23.764;2023-08-20T12:55:41;1025.8;;;36.5;33.7
74431;BME280;62863;52.062;23.764;2023-08-20T13:01:05;1025.8;;;36.6;32.4
74431;BME280;62863;52.062;23.764;2023-08-20T13:05:57;1025.8;;;36.8;32.6
74431;BME280;62863;52.062;23.764;2023-08-20T13:10:54;1025.8;;;36.5;33.3
74431;BME280;62863;52.062;23.764;2023-08-20T13:16:05;1025.7;;;36.2;33.7
74431;BME280;62863;52.062;23.764;2023-08-20T13:20:29;1025.6;;;36.1;34.7
74431;BME280;62863;52.062;23.764;2023-08-20T13:25:29;1025.6;;;36;34.2
74431;BME280;62863;52.062;23.764;2023-08-20T13:30:41;1025.6;;;35.8;35.1
74431;BME280;62863;52.062;23.764;2023-08-20T13:36:05;1025.6;;;35.6;34.5
74431;BME280;62863;52.062;23.764;2023-08-20T13:40:53;1025.5;;;35.5;34.3
74431;BME280;62863;52.062;23.764;2023-08-20T13:45:53;1025.5;;;35.2;34.5
74431;BME280;62863;52.062;23.764;2023-08-20T13:50:53;1025.5;;;34.9;35.6
74431;BME280;62863;52.062;23.764;2023-08-20T13:55:34;1025.4;;;34.8;35.8
74431;BME280;62863;52.062;23.764;2023-08-20T14:01:05;1025.4;;;34.7;36
74431;BME280;62863;52.062;23.764;2023-08-20T14:05:47;1025.4;;;34.9;35.5
74431;BME280;62863;52.062;23.764;2023-08-20T14:10:29;1025.4;;;34.7;35.8
74431;BME280;62863;52.062;23.764;2023-08-20T14:15:57;1025.4;;;34.5;36.8
74431;BME280;62863;52.062;23.764;2023-08-20T14:21:07;1025.5;;;34.2;36.5
74431;BME280;62863;52.062;23.764;2023-08-20T14:25:29;1025.4;;;34;37.2
74431;BME280;62863;52.062;23.764;2023-08-20T14:30:29;1025.4;;;34.3;37.1
74431;BME280;62863;52.062;23.764;2023-08-20T14:36:07;1025.4;;;34.8;36.2
74431;BME280;62863;52.062;23.764;2023-08-20T14:40:59;1025.3;;;35.1;36.6
74431;BME280;62863;52.062;23.764;2023-08-20T14:46:05;1025.3;;;35.3;37.2
74431;BME280;62863;52.062;23.764;2023-08-20T14:50:29;1025.3;;;35.3;35.7
74431;BME280;62863;52.062;23.764;2023-08-20T14:55:53;1025.2;;;35.1;35.2
74431;BME280;62863;52.062;23.764;2023-08-20T15:00:45;1025.2;;;35;35.6
74431;BME280;62863;52.062;23.764;2023-08-20T15:05:29;1025.2;;;35;35.6
74431;BME280;62863;52.062;23.764;2023-08-20T15:11:05;1025.2;;;34.7;36.8
74431;BME280;62863;52.062;23.764;2023-08-20T15:15:31;1025.2;;;34.5;36.6
74431;BME280;62863;52.062;23.764;2023-08-20T15:20:29;1025.2;;;34.4;36.2
74431;BME280;62863;52.062;23.764;2023-08-20T15:25:35;1025.3;;;34.2;35.9
74431;BME280;62863;52.062;23.764;2023-08-20T15:30:33;1025.3;;;34.2;36.6
74431;BME280;62863;52.062;23.764;2023-08-20T15:35:43;1025.3;;;34.1;37.1
74431;BME280;62863;52.062;23.764;2023-08-20T15:40:29;1025.3;;;34.1;37.1
74431;BME280;62863;52.062;23.764;2023-08-20T15:45:53;1025.3;;;33.9;36.7
74431;BME280;62863;52.062;23.764;2023-08-20T15:50:51;1025.3;;;33.7;37.6
74431;BME280;62863;52.062;23.764;2023-08-20T15:55:51;1025.3;;;33.5;38
74431;BME280;62863;52.062;23.764;2023-08-20T16:00:29;1025.3;;;33.1;37.2
74431;BME280;62863;52.062;23.764;2023-08-20T16:05:35;1025.4;;;32.8;38
74431;BME280;62863;52.062;23.764;2023-08-20T16:10:29;1025.4;;;32.5;38.8
74431;BME280;62863;52.062;23.764;2023-08-20T16:16:05;1025.5;;;32.2;39
74431;BME280;62863;52.062;23.764;2023-08-20T16:20:29;1025.5;;;32;39.5
74431;BME280;62863;52.062;23.764;2023-08-20T16:25:51;1025.5;;;31.8;39.7
74431;BME280;62863;52.062;23.764;2023-08-20T16:31:05;1025.6;;;31.7;40.2
74431;BME280;62863;52.062;23.764;2023-08-20T16:35:53;1025.6;;;31.4;40.1
74431;BME280;62863;52.062;23.764;2023-08-20T16:40:29;1025.6;;;31.2;40.9
74431;BME280;62863;52.062;23.764;2023-08-20T16:45:54;1025.7;;;30.9;42
74431;BME280;62863;52.062;23.764;2023-08-20T16:51:05;1025.7;;;30.7;42.7
74431;BME280;62863;52.062;23.764;2023-08-20T16:56:05;1025.7;;;30.5;43.1
74431;BME280;62863;52.062;23.764;2023-08-20T17:01:05;1025.7;;;30.3;44.1
74431;BME280;62863;52.062;23.764;2023-08-20T17:06:05;1025.7;;;30.1;45.3
74431;BME280;62863;52.062;23.764;2023-08-20T17:10:39;1025.8;;;29.9;46
74431;BME280;62863;52.062;23.764;2023-08-20T17:15:41;1025.8;;;29.6;46.8
74431;BME280;62863;52.062;23.764;2023-08-20T17:20:53;1025.8;;;29.3;47.8
74431;BME280;62863;52.062;23.764;2023-08-20T17:26:05;1025.8;;;29;48.7
74431;BME280;62863;52.062;23.764;2023-08-20T17:30:45;1025.8;;;28.8;49.7
74431;BME280;62863;52.062;23.764;2023-08-20T17:35:53;1025.9;;;28.5;51.1
74431;BME280;62863;52.062;23.764;2023-08-20T17:40:57;1025.9;;;28.2;52.7
74431;BME280;62863;52.062;23.764;2023-08-20T17:45:29;1025.9;;;27.8;54
74431;BME280;62863;52.062;23.764;2023-08-20T17:50:33;1026;;;27.5;55.2
74431;BME280;62863;52.062;23.764;2023-08-20T17:55:45;1026.1;;;27.3;56
74431;BME280;62863;52.062;23.764;2023-08-20T18:01:05;1026.1;;;27.1;58
74431;BME280;62863;52.062;23.764;2023-08-20T18:05:57;1026.1;;;26.8;60
74431;BME280;62863;52.062;23.764;2023-08-20T18:10:53;1026.2;;;26.7;60.9
74431;BME280;62863;52.062;23.764;2023-08-20T18:15:51;1026.2;;;26.5;62.2
74431;BME280;62863;52.062;23.764;2023-08-20T18:20:33;1026.3;;;26.4;63.3
74431;BME280;62863;52.062;23.764;2023-08-20T18:26:06;1026.3;;;26.2;63.5
74431;BME280;62863;52.062;23.764;2023-08-20T18:30:53;1026.3;;;26.1;63.8
74431;BME280;62863;52.062;23.764;2023-08-20T18:35:29;1026.3;;;26;64
74431;BME280;62863;52.062;23.764;2023-08-20T18:40:39;1026.3;;;25.9;64.4
74431;BME280;62863;52.062;23.764;2023-08-20T18:46:05;1026.3;;;25.7;65.3
74431;BME280;62863;52.062;23.764;2023-08-20T18:50:29;1026.4;;;25.6;65.9
74431;BME280;62863;52.062;23.764;2023-08-20T18:55:29;1026.4;;;25.6;66.6
74431;BME280;62863;52.062;23.764;2023-08-20T19:01:05;1026.5;;;25.4;67.6
74431;BME280;62863;52.062;23.764;2023-08-20T19:05:57;1026.5;;;25.4;68.8
74431;BME280;62863;52.062;23.764;2023-08-20T19:10:43;1026.6;;;25.3;69.1
74431;BME280;62863;52.062;23.764;2023-08-20T19:15:43;1026.6;;;25.2;69.4
74431;BME280;62863;52.062;23.764;2023-08-20T19:20:50;1026.5;;;25.2;69.6
74431;BME280;62863;52.062;23.764;2023-08-20T19:25:46;1026.6;;;25.1;69.6
74431;BME280;62863;52.062;23.764;2023-08-20T19:30:44;1026.6;;;25.1;69.7
74431;BME280;62863;52.062;23.764;2023-08-20T19:36:07;1026.7;;;25;68.4
74431;BME280;62863;52.062;23.764;2023-08-20T19:40:49;1026.7;;;24.9;69.5
74431;BME280;62863;52.062;23.764;2023-08-20T19:45:43;1026.8;;;24.8;69.9
74431;BME280;62863;52.062;23.764;2023-08-20T19:50:43;1026.8;;;24.7;70.2
74431;BME280;62863;52.062;23.764;2023-08-20T19:55:39;1026.8;;;24.7;70.6
74431;BME280;62863;52.062;23.764;2023-08-20T20:00:29;1026.9;;;24.6;71.8
74431;BME280;62863;52.062;23.764;2023-08-20T20:05:45;1026.9;;;24.5;72.2
74431;BME280;62863;52.062;23.764;2023-08-20T20:10:53;1027;;;24.5;72.6
74431;BME280;62863;52.062;23.764;2023-08-20T20:15:51;1026.9;;;24.4;72.9
74431;BME280;62863;52.062;23.764;2023-08-20T20:20:35;1026.9;;;24.4;72.9
74431;BME280;62863;52.062;23.764;2023-08-20T20:25:39;1026.9;;;24.4;72.8
74431;BME280;62863;52.062;23.764;2023-08-20T20:30:33;1026.9;;;24.3;71.8
74431;BME280;62863;52.062;23.764;2023-08-20T20:35:29;1026.9;;;24.2;72.9
74431;BME280;62863;52.062;23.764;2023-08-20T20:41:07;1026.9;;;24.2;73.1
74431;BME280;62863;52.062;23.764;2023-08-20T20:45:42;1026.9;;;24.1;73.6
74431;BME280;62863;52.062;23.764;2023-08-20T20:50:42;1027;;;24;73.8
74431;BME280;62863;52.062;23.764;2023-08-20T20:56:07;1027;;;24;73.8
74431;BME280;62863;52.062;23.764;2023-08-20T21:00:55;1027;;;23.9;73.6
74431;BME280;62863;52.062;23.764;2023-08-20T21:05:29;1027;;;23.9;73.8
74431;BME280;62863;52.062;23.764;2023-08-20T21:10:53;1027;;;23.8;73.1
74431;BME280;62863;52.062;23.764;2023-08-20T21:16:05;1027.1;;;23.8;73
74431;BME280;62863;52.062;23.764;2023-08-20T21:21:05;1027.1;;;23.7;73
74431;BME280;62863;52.062;23.764;2023-08-20T21:26:05;1027.1;;;23.6;73.2
74431;BME280;62863;52.062;23.764;2023-08-20T21:31:03;1027.1;;;23.6;73.4
74431;BME280;62863;52.062;23.764;2023-08-20T21:35:59;1027.2;;;23.5;73.5
74431;BME280;62863;52.062;23.764;2023-08-20T21:40:29;1027.2;;;23.5;73.5
74431;BME280;62863;52.062;23.764;2023-08-20T21:45:33;1027.2;;;23.4;73.9
74431;BME280;62863;52.062;23.764;2023-08-20T21:51:05;1027.2;;;23.4;74.2
74431;BME280;62863;52.062;23.764;2023-08-20T21:55:59;1027.2;;;23.4;74.9
74431;BME280;62863;52.062;23.764;2023-08-20T22:00:53;1027.3;;;23.4;74.9
74431;BME280;62863;52.062;23.764;2023-08-20T22:06:08;1027.3;;;23.3;74.8
74431;BME280;62863;52.062;23.764;2023-08-20T22:10:33;1027.2;;;23.3;74.9
74431;BME280;62863;52.062;23.764;2023-08-20T22:15:33;1027.2;;;23.3;75.1
74431;BME280;62863;52.062;23.764;2023-08-20T22:20:45;1027.2;;;23.3;75.1
74431;BME280;62863;52.062;23.764;2023-08-20T22:26:05;1027.2;;;23.3;75.1
74431;BME280;62863;52.062;23.764;2023-08-20T22:30:49;1027.1;;;23.3;75.1
74431;BME280;62863;52.062;23.764;2023-08-20T22:35:55;1027.1;;;23.3;75.4
74431;BME280;62863;52.062;23.764;2023-08-20T22:40:34;1027.1;;;23.2;75.5
74431;BME280;62863;52.062;23.764;2023-08-20T22:46:07;1027.2;;;23.2;75.2
74431;BME280;62863;52.062;23.764;2023-08-20T22:51:05;1027.3;;;23.3;75.2
74431;BME280;62863;52.062;23.764;2023-08-20T22:55:34;1027.3;;;23.2;75.2
74431;BME280;62863;52.062;23.764;2023-08-20T23:00:39;1027.3;;;23.2;75
74431;BME280;62863;52.062;23.764;2023-08-20T23:05:35;1027.4;;;23.2;74.5
74431;BME280;62863;52.062;23.764;2023-08-20T23:11:06;1027.3;;;23.1;74.1
74431;BME280;62863;52.062;23.764;2023-08-20T23:15:34;1027.2;;;23;74.2
74431;BME280;62863;52.062;23.764;2023-08-20T23:20:51;1027.2;;;23;74.6
74431;BME280;62863;52.062;23.764;2023-08-20T23:26:06;1027.1;;;22.9;74.7
74431;BME280;62863;52.062;23.764;2023-08-20T23:30:58;1027.1;;;22.9;75.4
74431;BME280;62863;52.062;23.764;2023-08-20T23:36:00;1027.1;;;22.9;76.3
74431;BME280;62863;52.062;23.764;2023-08-20T23:40:40;1027.1;;;22.9;76
74431;BME280;62863;52.062;23.764;2023-08-20T23:45:52;1027.1;;;22.9;75.9
74431;BME280;62863;52.062;23.764;2023-08-20T23:50:30;1027.1;;;22.9;76.1
74431;BME280;62863;52.062;23.764;2023-08-20T23:55:48;1027.2;;;22.9;76.1
